05/22 15:00 更新

3,000ftに雲が少し
23,000ftに雲が多い

地上風: 090°4kt
(040°~ 170°で変動)

上空風(熊谷ウインドプロファイラ)
13,000ft: 未計測
10,000ft: 250°30kt
 7,000ft: 270°10kt
 3,000ft: 200°13kt

地上: 24℃
上空: 未計測℃

日没: 18:44

実況天気図


予想天気図


RJTJ 220600Z 09004KT 040V170 9999 FEW030 BKN230 24/09 Q1004 RMK 1CU030 A2966=

GPV気象予報
気象庁
日本気象協会

玉淀ダム放流量(1,000m3/sを超えた7時間後にDZ冠水)
太郎衛門橋テレメータ水位(11mでDZ冠水)

skydive.jp